GIA633 WARR-WIII
Flight info
| Callsign | GIA633 |
|---|---|
| Flight time | 1h 18m |
| Altitude | 36000 |
| Route | LASEM T2 KALUT T6 KURUS |
| Aircraft | B38M/M-SDE1FGHILORVWXY/HB1 |
Departure
| Time | 2026-05-05 04:35 |
|---|---|
| Airport | Juanda International Airport (WARR) |
Arrival
| Time | 2026-05-05 05:53 |
|---|---|
| Airport | Soekarno-Hatta International Airport (WIII) |
| Time | Latitude | Longitude | Altitude | Speed | Heading |
|---|---|---|---|---|---|
| 2026-05-05 04:12 | -7.37561 | 112.79293 | 11 ft | 0 kts | 9° |
| 2026-05-05 04:27 | -7.37572 | 112.79291 | 13 ft | 4 kts | 9° |
| 2026-05-05 04:27 | -7.37598 | 112.79286 | 14 ft | 4 kts | 11° |
| 2026-05-05 04:28 | -7.37621 | 112.79282 | 13 ft | 4 kts | 7° |
| 2026-05-05 04:28 | -7.37643 | 112.79286 | 13 ft | 4 kts | 311° |
| 2026-05-05 04:28 | -7.37652 | 112.79308 | 12 ft | 3 kts | 279° |
| 2026-05-05 04:28 | -7.37653 | 112.79315 | 11 ft | 0 kts | 279° |
| 2026-05-05 04:31 | -7.37651 | 112.79298 | 13 ft | 6 kts | 279° |
| 2026-05-05 04:31 | -7.37638 | 112.79216 | 11 ft | 18 kts | 279° |
| 2026-05-05 04:31 | -7.37640 | 112.79101 | 13 ft | 12 kts | 223° |
| 2026-05-05 04:31 | -7.37754 | 112.79085 | 11 ft | 22 kts | 189° |
| 2026-05-05 04:32 | -7.37865 | 112.79002 | 11 ft | 20 kts | 279° |
| 2026-05-05 04:32 | -7.37830 | 112.78828 | 11 ft | 31 kts | 279° |
| 2026-05-05 04:32 | -7.37795 | 112.78602 | 11 ft | 40 kts | 278° |
| 2026-05-05 04:32 | -7.37747 | 112.78301 | 12 ft | 46 kts | 279° |
| 2026-05-05 04:33 | -7.37689 | 112.77975 | 13 ft | 48 kts | 281° |
| 2026-05-05 04:33 | -7.37636 | 112.77646 | 11 ft | 47 kts | 279° |
| 2026-05-05 04:33 | -7.37639 | 112.77383 | 11 ft | 22 kts | 209° |
| 2026-05-05 04:33 | -7.37762 | 112.77376 | 11 ft | 3 kts | 144° |
| 2026-05-05 04:34 | -7.37774 | 112.77399 | 12 ft | 4 kts | 108° |
| 2026-05-05 04:34 | -7.37777 | 112.77414 | 11 ft | 1 kts | 100° |
| 2026-05-05 04:34 | -7.37780 | 112.77429 | 12 ft | 4 kts | 100° |
| 2026-05-05 04:34 | -7.37813 | 112.77630 | 11 ft | 66 kts | 99° |
| 2026-05-05 04:35 | -7.37923 | 112.78326 | 11 ft | 133 kts | 99° |
| 2026-05-05 04:35 | -7.38079 | 112.79435 | 104 ft | 179 kts | 99° |
| 2026-05-05 04:35 | -7.38333 | 112.80705 | 798 ft | 185 kts | 103° |
| 2026-05-05 04:35 | -7.38647 | 112.82006 | 1453 ft | 206 kts | 99° |
| 2026-05-05 04:36 | -7.38745 | 112.83636 | 1327 ft | 261 kts | 89° |
| 2026-05-05 04:36 | -7.38789 | 112.85443 | 2454 ft | 253 kts | 94° |
| 2026-05-05 04:36 | -7.39063 | 112.87223 | 3424 ft | 271 kts | 103° |
| 2026-05-05 04:36 | -7.39600 | 112.89195 | 3834 ft | 301 kts | 96° |
| 2026-05-05 04:37 | -7.39284 | 112.91173 | 5459 ft | 280 kts | 63° |
| 2026-05-05 04:37 | -7.38043 | 112.92595 | 6971 ft | 270 kts | 33° |
| 2026-05-05 04:37 | -7.36270 | 112.93179 | 7873 ft | 281 kts | 3° |
| 2026-05-05 04:37 | -7.34338 | 112.92709 | 8795 ft | 287 kts | 334° |
| 2026-05-05 04:38 | -7.32600 | 112.91725 | 9698 ft | 294 kts | 332° |
| 2026-05-05 04:38 | -7.30761 | 112.90778 | 10402 ft | 302 kts | 340° |
| 2026-05-05 04:38 | -7.28705 | 112.90108 | 10831 ft | 321 kts | 346° |
| 2026-05-05 04:38 | -7.26478 | 112.89554 | 11204 ft | 340 kts | 349° |
| 2026-05-05 04:39 | -7.24104 | 112.89085 | 11697 ft | 354 kts | 351° |
| 2026-05-05 04:39 | -7.21634 | 112.88674 | 12333 ft | 362 kts | 352° |
| 2026-05-05 04:39 | -7.19135 | 112.88296 | 13112 ft | 366 kts | 353° |
| 2026-05-05 04:39 | -7.16641 | 112.87717 | 13762 ft | 374 kts | 339° |
| 2026-05-05 04:40 | -7.14399 | 112.86382 | 14434 ft | 378 kts | 320° |
| 2026-05-05 04:40 | -7.12688 | 112.84372 | 15075 ft | 382 kts | 300° |
| 2026-05-05 04:40 | -7.11639 | 112.81922 | 15751 ft | 384 kts | 291° |
| 2026-05-05 04:40 | -7.10634 | 112.79408 | 16266 ft | 390 kts | 292° |
| 2026-05-05 04:41 | -7.09597 | 112.76867 | 16901 ft | 392 kts | 292° |
| 2026-05-05 04:41 | -7.08552 | 112.74327 | 17525 ft | 394 kts | 292° |
| 2026-05-05 04:41 | -7.07502 | 112.71775 | 18168 ft | 395 kts | 292° |
| 2026-05-05 04:41 | -7.06443 | 112.69210 | 18648 ft | 398 kts | 292° |
| 2026-05-05 04:42 | -7.05376 | 112.66623 | 19074 ft | 402 kts | 292° |
| 2026-05-05 04:42 | -7.04300 | 112.64019 | 19556 ft | 404 kts | 292° |
| 2026-05-05 04:42 | -7.03216 | 112.61394 | 19971 ft | 408 kts | 292° |
| 2026-05-05 04:42 | -7.02123 | 112.58746 | 20399 ft | 411 kts | 292° |
| 2026-05-05 04:43 | -7.01019 | 112.56076 | 20816 ft | 414 kts | 292° |
| 2026-05-05 04:43 | -6.99920 | 112.53414 | 21177 ft | 418 kts | 292° |
| 2026-05-05 04:43 | -6.98801 | 112.50710 | 21662 ft | 418 kts | 292° |
| 2026-05-05 04:43 | -6.97677 | 112.47987 | 22043 ft | 422 kts | 292° |
| 2026-05-05 04:44 | -6.96550 | 112.45260 | 22446 ft | 425 kts | 292° |
| 2026-05-05 04:44 | -6.95412 | 112.42507 | 22788 ft | 428 kts | 292° |
| 2026-05-05 04:44 | -6.94261 | 112.39729 | 23207 ft | 430 kts | 292° |
| 2026-05-05 04:44 | -6.93107 | 112.36939 | 23558 ft | 432 kts | 292° |
| 2026-05-05 04:45 | -6.91952 | 112.34146 | 23917 ft | 433 kts | 292° |
| 2026-05-05 04:45 | -6.90792 | 112.31342 | 24200 ft | 435 kts | 292° |
| 2026-05-05 04:45 | -6.89623 | 112.28518 | 24488 ft | 438 kts | 292° |
| 2026-05-05 04:45 | -6.88452 | 112.25685 | 24748 ft | 441 kts | 292° |
| 2026-05-05 04:46 | -6.87271 | 112.22832 | 25060 ft | 442 kts | 292° |
| 2026-05-05 04:46 | -6.86097 | 112.19997 | 25284 ft | 446 kts | 292° |
| 2026-05-05 04:46 | -6.84893 | 112.17093 | 25616 ft | 445 kts | 292° |
| 2026-05-05 04:46 | -6.83700 | 112.14211 | 25889 ft | 447 kts | 292° |
| 2026-05-05 04:47 | -6.82515 | 112.11348 | 26074 ft | 451 kts | 292° |
| 2026-05-05 04:47 | -6.81301 | 112.08423 | 26351 ft | 452 kts | 292° |
| 2026-05-05 04:47 | -6.80092 | 112.05502 | 26627 ft | 454 kts | 292° |
| 2026-05-05 04:47 | -6.78872 | 112.02557 | 26825 ft | 457 kts | 292° |
| 2026-05-05 04:48 | -6.77647 | 111.99604 | 27065 ft | 458 kts | 292° |
| 2026-05-05 04:48 | -6.76420 | 111.96642 | 27366 ft | 459 kts | 292° |
| 2026-05-05 04:48 | -6.75193 | 111.93683 | 27595 ft | 461 kts | 292° |
| 2026-05-05 04:48 | -6.73952 | 111.90691 | 27774 ft | 464 kts | 292° |
| 2026-05-05 04:49 | -6.72710 | 111.87698 | 28058 ft | 464 kts | 292° |
| 2026-05-05 04:49 | -6.71463 | 111.84693 | 28260 ft | 466 kts | 292° |
| 2026-05-05 04:49 | -6.70214 | 111.81683 | 28511 ft | 467 kts | 292° |
| 2026-05-05 04:49 | -6.68962 | 111.78666 | 28715 ft | 469 kts | 293° |
| 2026-05-05 04:50 | -6.67700 | 111.75626 | 28888 ft | 471 kts | 293° |
| 2026-05-05 04:50 | -6.66438 | 111.72587 | 29088 ft | 473 kts | 293° |
| 2026-05-05 04:50 | -6.65167 | 111.69525 | 29311 ft | 474 kts | 293° |
| 2026-05-05 04:50 | -6.63894 | 111.66460 | 29500 ft | 476 kts | 293° |
| 2026-05-05 04:51 | -6.62616 | 111.63383 | 29694 ft | 477 kts | 293° |
| 2026-05-05 04:51 | -6.61181 | 111.60371 | 29864 ft | 478 kts | 299° |
| 2026-05-05 04:51 | -6.59603 | 111.57419 | 30040 ft | 480 kts | 298° |
| 2026-05-05 04:51 | -6.58050 | 111.54453 | 30196 ft | 481 kts | 298° |
| 2026-05-05 04:52 | -6.56500 | 111.51463 | 30365 ft | 482 kts | 298° |
| 2026-05-05 04:52 | -6.54956 | 111.48476 | 30529 ft | 483 kts | 298° |
| 2026-05-05 04:52 | -6.53407 | 111.45475 | 30700 ft | 483 kts | 298° |
| 2026-05-05 04:52 | -6.51857 | 111.42472 | 30865 ft | 484 kts | 298° |
| 2026-05-05 04:53 | -6.50301 | 111.39460 | 31006 ft | 486 kts | 298° |
| 2026-05-05 04:53 | -6.48744 | 111.36444 | 31164 ft | 486 kts | 298° |
| 2026-05-05 04:53 | -6.47185 | 111.33427 | 31354 ft | 486 kts | 298° |
| 2026-05-05 04:53 | -6.45623 | 111.30403 | 31482 ft | 488 kts | 298° |
| 2026-05-05 04:54 | -6.44064 | 111.27388 | 31681 ft | 487 kts | 298° |
| 2026-05-05 04:54 | -6.42520 | 111.24399 | 31875 ft | 487 kts | 298° |
| 2026-05-05 04:54 | -6.40962 | 111.21385 | 32085 ft | 486 kts | 298° |
| 2026-05-05 04:54 | -6.39381 | 111.18327 | 32303 ft | 485 kts | 298° |
| 2026-05-05 04:55 | -6.37848 | 111.15361 | 32517 ft | 484 kts | 298° |
| 2026-05-05 04:55 | -6.36289 | 111.12357 | 32682 ft | 484 kts | 299° |
| 2026-05-05 04:55 | -6.34689 | 111.09381 | 32855 ft | 484 kts | 300° |
| 2026-05-05 04:55 | -6.33090 | 111.06408 | 33057 ft | 483 kts | 300° |
| 2026-05-05 04:56 | -6.31497 | 111.03441 | 33250 ft | 482 kts | 300° |
| 2026-05-05 04:56 | -6.29909 | 111.00481 | 33447 ft | 482 kts | 300° |
| 2026-05-05 04:56 | -6.28317 | 110.97516 | 33642 ft | 481 kts | 300° |
| 2026-05-05 04:56 | -6.26731 | 110.94560 | 33833 ft | 480 kts | 300° |
| 2026-05-05 04:57 | -6.25148 | 110.91611 | 34002 ft | 479 kts | 300° |
| 2026-05-05 04:57 | -6.23564 | 110.88662 | 34166 ft | 478 kts | 300° |
| 2026-05-05 04:57 | -6.21985 | 110.85720 | 34309 ft | 478 kts | 300° |
| 2026-05-05 04:57 | -6.20411 | 110.82790 | 34450 ft | 477 kts | 300° |
| 2026-05-05 04:58 | -6.18834 | 110.79854 | 34596 ft | 477 kts | 300° |
| 2026-05-05 04:58 | -6.17261 | 110.76926 | 34725 ft | 477 kts | 300° |
| 2026-05-05 04:58 | -6.15703 | 110.74028 | 34859 ft | 476 kts | 300° |
| 2026-05-05 04:58 | -6.14130 | 110.71102 | 35003 ft | 475 kts | 300° |
| 2026-05-05 04:59 | -6.12562 | 110.68185 | 35139 ft | 475 kts | 300° |
| 2026-05-05 04:59 | -6.10994 | 110.65268 | 35283 ft | 474 kts | 300° |
| 2026-05-05 04:59 | -6.09428 | 110.62356 | 35413 ft | 474 kts | 300° |
| 2026-05-05 04:59 | -6.07868 | 110.59455 | 35538 ft | 473 kts | 300° |
| 2026-05-05 05:00 | -6.06301 | 110.56542 | 35671 ft | 473 kts | 300° |
| 2026-05-05 05:00 | -6.04741 | 110.53642 | 35816 ft | 471 kts | 300° |
| 2026-05-05 05:00 | -6.03182 | 110.50744 | 35898 ft | 472 kts | 300° |
| 2026-05-05 05:01 | -6.00041 | 110.44910 | 35879 ft | 476 kts | 300° |
| 2026-05-05 05:01 | -5.97142 | 110.38930 | 35858 ft | 480 kts | 287° |
| 2026-05-05 05:01 | -5.96619 | 110.35615 | 35888 ft | 483 kts | 273° |
| 2026-05-05 05:02 | -5.96566 | 110.32232 | 35878 ft | 485 kts | 272° |
| 2026-05-05 05:02 | -5.96508 | 110.25449 | 35884 ft | 486 kts | 271° |
| 2026-05-05 05:03 | -5.96501 | 110.18649 | 35885 ft | 487 kts | 271° |
| 2026-05-05 05:03 | -5.96500 | 110.11850 | 35882 ft | 488 kts | 271° |
| 2026-05-05 05:04 | -5.96499 | 110.05060 | 35885 ft | 489 kts | 271° |
| 2026-05-05 05:04 | -5.96496 | 109.98232 | 35884 ft | 489 kts | 271° |
| 2026-05-05 05:05 | -5.96493 | 109.91395 | 35889 ft | 489 kts | 271° |
| 2026-05-05 05:05 | -5.96488 | 109.84562 | 35886 ft | 490 kts | 271° |
| 2026-05-05 05:06 | -5.96483 | 109.77715 | 35888 ft | 490 kts | 271° |
| 2026-05-05 05:06 | -5.96477 | 109.72030 | 35887 ft | 490 kts | 271° |
| 2026-05-05 05:07 | -5.96471 | 109.65189 | 35888 ft | 490 kts | 271° |
| 2026-05-05 05:07 | -5.96463 | 109.58355 | 35885 ft | 490 kts | 271° |
| 2026-05-05 05:08 | -5.96455 | 109.51509 | 35890 ft | 490 kts | 271° |
| 2026-05-05 05:08 | -5.96445 | 109.44654 | 35892 ft | 490 kts | 271° |
| 2026-05-05 05:09 | -5.96435 | 109.37804 | 35890 ft | 490 kts | 271° |
| 2026-05-05 05:09 | -5.96424 | 109.30948 | 35887 ft | 491 kts | 271° |
| 2026-05-05 05:10 | -5.96412 | 109.24142 | 35887 ft | 491 kts | 271° |
| 2026-05-05 05:10 | -5.96399 | 109.17281 | 35885 ft | 491 kts | 271° |
| 2026-05-05 05:11 | -5.96386 | 109.10435 | 35891 ft | 491 kts | 271° |
| 2026-05-05 05:11 | -5.96371 | 109.03566 | 35889 ft | 491 kts | 271° |
| 2026-05-05 05:12 | -5.96356 | 108.96695 | 35889 ft | 492 kts | 271° |
| 2026-05-05 05:12 | -5.96340 | 108.89873 | 35890 ft | 492 kts | 271° |
| 2026-05-05 05:13 | -5.96323 | 108.83002 | 35889 ft | 492 kts | 271° |
| 2026-05-05 05:13 | -5.96305 | 108.76127 | 35888 ft | 492 kts | 271° |
| 2026-05-05 05:14 | -5.96286 | 108.69244 | 35889 ft | 492 kts | 271° |
| 2026-05-05 05:14 | -5.96267 | 108.62371 | 35889 ft | 493 kts | 271° |
| 2026-05-05 05:15 | -5.96247 | 108.55527 | 35890 ft | 493 kts | 271° |
| 2026-05-05 05:15 | -5.96227 | 108.48644 | 35890 ft | 493 kts | 271° |
| 2026-05-05 05:16 | -5.96222 | 108.41805 | 35896 ft | 478 kts | 271° |
| 2026-05-05 05:16 | -5.96219 | 108.38516 | 35895 ft | 463 kts | 271° |
| 2026-05-05 05:16 | -5.96215 | 108.35312 | 35904 ft | 459 kts | 271° |
| 2026-05-05 05:17 | -5.96209 | 108.28800 | 35612 ft | 473 kts | 271° |
| 2026-05-05 05:17 | -5.96205 | 108.25481 | 35365 ft | 475 kts | 271° |
| 2026-05-05 05:17 | -5.96201 | 108.22164 | 35128 ft | 476 kts | 271° |
| 2026-05-05 05:17 | -5.96197 | 108.18835 | 34894 ft | 476 kts | 271° |
| 2026-05-05 05:18 | -5.96192 | 108.15511 | 34661 ft | 477 kts | 270° |
| 2026-05-05 05:18 | -5.96188 | 108.12221 | 34438 ft | 479 kts | 270° |
| 2026-05-05 05:18 | -5.96183 | 108.08836 | 33984 ft | 476 kts | 270° |
| 2026-05-05 05:18 | -5.96178 | 108.05491 | 32787 ft | 486 kts | 270° |
| 2026-05-05 05:19 | -5.96173 | 108.02062 | 31668 ft | 494 kts | 270° |
| 2026-05-05 05:19 | -5.96169 | 107.98642 | 30933 ft | 493 kts | 270° |
| 2026-05-05 05:19 | -5.96170 | 107.95198 | 30116 ft | 494 kts | 270° |
| 2026-05-05 05:19 | -5.96171 | 107.91732 | 29050 ft | 498 kts | 270° |
| 2026-05-05 05:20 | -5.96171 | 107.88240 | 28021 ft | 501 kts | 270° |
| 2026-05-05 05:20 | -5.96171 | 107.84765 | 27332 ft | 496 kts | 270° |
| 2026-05-05 05:20 | -5.96171 | 107.81312 | 26619 ft | 492 kts | 270° |
| 2026-05-05 05:20 | -5.96171 | 107.77877 | 25931 ft | 489 kts | 270° |
| 2026-05-05 05:21 | -5.96170 | 107.74505 | 25621 ft | 477 kts | 270° |
| 2026-05-05 05:21 | -5.96169 | 107.71221 | 25359 ft | 465 kts | 270° |
| 2026-05-05 05:21 | -5.96168 | 107.68047 | 25109 ft | 454 kts | 270° |
| 2026-05-05 05:21 | -5.96168 | 107.64912 | 24843 ft | 444 kts | 270° |
| 2026-05-05 05:22 | -5.96169 | 107.61782 | 24255 ft | 443 kts | 269° |
| 2026-05-05 05:22 | -5.96169 | 107.58728 | 23742 ft | 442 kts | 269° |
| 2026-05-05 05:22 | -5.96169 | 107.55650 | 23156 ft | 441 kts | 269° |
| 2026-05-05 05:22 | -5.96169 | 107.52576 | 22564 ft | 439 kts | 269° |
| 2026-05-05 05:23 | -5.96169 | 107.49517 | 22027 ft | 436 kts | 270° |
| 2026-05-05 05:23 | -5.96169 | 107.46483 | 21495 ft | 433 kts | 270° |
| 2026-05-05 05:23 | -5.96169 | 107.43474 | 20971 ft | 430 kts | 270° |
| 2026-05-05 05:23 | -5.96169 | 107.40482 | 20450 ft | 427 kts | 270° |
| 2026-05-05 05:24 | -5.96168 | 107.37501 | 19932 ft | 426 kts | 270° |
| 2026-05-05 05:24 | -5.96167 | 107.34535 | 19416 ft | 424 kts | 270° |
| 2026-05-05 05:24 | -5.96165 | 107.31580 | 18894 ft | 422 kts | 270° |
| 2026-05-05 05:24 | -5.96161 | 107.28622 | 18359 ft | 422 kts | 270° |
| 2026-05-05 05:25 | -5.96157 | 107.25686 | 17837 ft | 419 kts | 270° |
| 2026-05-05 05:25 | -5.96152 | 107.22762 | 17330 ft | 416 kts | 270° |
| 2026-05-05 05:25 | -5.96148 | 107.19873 | 16845 ft | 412 kts | 270° |
| 2026-05-05 05:25 | -5.96143 | 107.17026 | 16384 ft | 402 kts | 270° |
| 2026-05-05 05:26 | -5.96139 | 107.14285 | 15943 ft | 391 kts | 270° |
| 2026-05-05 05:26 | -5.96134 | 107.11597 | 15509 ft | 381 kts | 270° |
| 2026-05-05 05:26 | -5.96130 | 107.08966 | 15082 ft | 372 kts | 270° |
| 2026-05-05 05:26 | -5.96125 | 107.06397 | 14668 ft | 363 kts | 270° |
| 2026-05-05 05:27 | -5.96120 | 107.03884 | 14254 ft | 356 kts | 270° |
| 2026-05-05 05:27 | -5.96114 | 107.01413 | 13763 ft | 352 kts | 270° |
| 2026-05-05 05:27 | -5.96102 | 106.96521 | 12786 ft | 349 kts | 270° |
| 2026-05-05 05:28 | -5.96096 | 106.94088 | 12393 ft | 348 kts | 270° |
| 2026-05-05 05:28 | -5.96090 | 106.91666 | 12043 ft | 345 kts | 270° |
| 2026-05-05 05:28 | -5.96084 | 106.89290 | 11664 ft | 344 kts | 270° |
| 2026-05-05 05:28 | -5.96078 | 106.86899 | 11264 ft | 343 kts | 270° |
| 2026-05-05 05:29 | -5.96071 | 106.84502 | 10859 ft | 343 kts | 270° |
| 2026-05-05 05:29 | -5.96065 | 106.82106 | 10452 ft | 343 kts | 270° |
| 2026-05-05 05:29 | -5.96064 | 106.79710 | 10060 ft | 342 kts | 268° |
| 2026-05-05 05:29 | -5.96567 | 106.77389 | 9599 ft | 342 kts | 246° |
| 2026-05-05 05:30 | -5.97502 | 106.75206 | 9155 ft | 341 kts | 247° |
| 2026-05-05 05:30 | -5.98406 | 106.73009 | 8679 ft | 340 kts | 247° |
| 2026-05-05 05:30 | -5.99305 | 106.70804 | 8037 ft | 343 kts | 247° |
| 2026-05-05 05:30 | -6.00210 | 106.68575 | 7407 ft | 346 kts | 247° |
| 2026-05-05 05:31 | -6.01121 | 106.66325 | 6778 ft | 348 kts | 247° |
| 2026-05-05 05:31 | -6.02035 | 106.64069 | 6148 ft | 350 kts | 247° |
| 2026-05-05 05:31 | -6.02950 | 106.61810 | 5596 ft | 345 kts | 247° |
| 2026-05-05 05:31 | -6.03838 | 106.59612 | 5151 ft | 333 kts | 247° |
| 2026-05-05 05:32 | -6.04691 | 106.57502 | 4770 ft | 320 kts | 247° |
| 2026-05-05 05:32 | -6.05513 | 106.55465 | 4348 ft | 309 kts | 247° |
| 2026-05-05 05:32 | -6.06306 | 106.53503 | 3998 ft | 298 kts | 247° |
| 2026-05-05 05:32 | -6.07070 | 106.51611 | 3748 ft | 283 kts | 247° |
| 2026-05-05 05:33 | -6.07728 | 106.49983 | 3621 ft | 269 kts | 246° |
| 2026-05-05 05:33 | -6.08410 | 106.48289 | 3460 ft | 254 kts | 247° |
| 2026-05-05 05:33 | -6.09058 | 106.46685 | 3317 ft | 241 kts | 247° |
| 2026-05-05 05:33 | -6.09663 | 106.45185 | 3149 ft | 229 kts | 247° |
| 2026-05-05 05:34 | -6.10267 | 106.43722 | 3039 ft | 226 kts | 242° |
| 2026-05-05 05:34 | -6.11302 | 106.42569 | 2745 ft | 224 kts | 204° |
| 2026-05-05 05:34 | -6.12774 | 106.42319 | 2599 ft | 208 kts | 169° |
| 2026-05-05 05:34 | -6.14158 | 106.42543 | 2483 ft | 199 kts | 167° |
| 2026-05-05 05:35 | -6.15522 | 106.42778 | 2219 ft | 198 kts | 163° |
| 2026-05-05 05:35 | -6.16672 | 106.43424 | 2015 ft | 185 kts | 127° |
| 2026-05-05 05:35 | -6.17222 | 106.44520 | 1907 ft | 172 kts | 97° |
| 2026-05-05 05:35 | -6.17310 | 106.45729 | 1997 ft | 176 kts | 90° |
| 2026-05-05 05:36 | -6.17346 | 106.46975 | 2058 ft | 180 kts | 90° |
| 2026-05-05 05:36 | -6.17363 | 106.48234 | 2011 ft | 179 kts | 89° |
| 2026-05-05 05:36 | -6.17249 | 106.49474 | 2019 ft | 178 kts | 72° |
| 2026-05-05 05:36 | -6.16844 | 106.50616 | 2036 ft | 176 kts | 70° |
| 2026-05-05 05:37 | -6.16405 | 106.51776 | 2007 ft | 179 kts | 69° |
| 2026-05-05 05:37 | -6.15952 | 106.52951 | 1987 ft | 181 kts | 69° |
| 2026-05-05 05:37 | -6.15498 | 106.54120 | 2006 ft | 180 kts | 68° |
| 2026-05-05 05:37 | -6.15039 | 106.55282 | 2008 ft | 179 kts | 68° |
| 2026-05-05 05:38 | -6.14580 | 106.56448 | 1989 ft | 180 kts | 68° |
| 2026-05-05 05:38 | -6.14116 | 106.57618 | 1982 ft | 179 kts | 68° |
| 2026-05-05 05:38 | -6.13652 | 106.58783 | 1984 ft | 178 kts | 68° |
| 2026-05-05 05:38 | -6.13196 | 106.59929 | 1970 ft | 178 kts | 67° |
| 2026-05-05 05:39 | -6.12736 | 106.61087 | 1834 ft | 182 kts | 67° |
| 2026-05-05 05:39 | -6.12277 | 106.62368 | 1155 ft | 205 kts | 70° |
| 2026-05-05 05:39 | -6.11737 | 106.63722 | 703 ft | 214 kts | 63° |
| 2026-05-05 05:39 | -6.11073 | 106.65175 | 1335 ft | 240 kts | 63° |
| 2026-05-05 05:40 | -6.10024 | 106.66382 | 2899 ft | 219 kts | 39° |
| 2026-05-05 05:40 | -6.08699 | 106.67167 | 3689 ft | 247 kts | 30° |
| 2026-05-05 05:40 | -6.06636 | 106.67561 | 2669 ft | 340 kts | 0° |
| 2026-05-05 05:40 | -6.04319 | 106.67512 | 3963 ft | 335 kts | 1° |
| 2026-05-05 05:41 | -6.01922 | 106.67473 | 4565 ft | 364 kts | 4° |
| 2026-05-05 05:41 | -5.99419 | 106.67936 | 4181 ft | 351 kts | 14° |
| 2026-05-05 05:41 | -5.97078 | 106.68376 | 4083 ft | 336 kts | 11° |
| 2026-05-05 05:41 | -5.94818 | 106.68718 | 4020 ft | 321 kts | 10° |
| 2026-05-05 05:42 | -5.92643 | 106.68927 | 3973 ft | 308 kts | 359° |
| 2026-05-05 05:42 | -5.90673 | 106.68332 | 4027 ft | 295 kts | 330° |
| 2026-05-05 05:42 | -5.89205 | 106.66965 | 3945 ft | 287 kts | 307° |
| 2026-05-05 05:42 | -5.88293 | 106.65206 | 3752 ft | 282 kts | 288° |
| 2026-05-05 05:43 | -5.88027 | 106.63272 | 3465 ft | 280 kts | 266° |
| 2026-05-05 05:43 | -5.88485 | 106.61391 | 3144 ft | 277 kts | 243° |
| 2026-05-05 05:43 | -5.89586 | 106.59850 | 3016 ft | 265 kts | 221° |
| 2026-05-05 05:43 | -5.91040 | 106.58827 | 3008 ft | 247 kts | 206° |
| 2026-05-05 05:44 | -5.92498 | 106.58020 | 3030 ft | 232 kts | 206° |
| 2026-05-05 05:44 | -5.93859 | 106.57255 | 3013 ft | 217 kts | 207° |
| 2026-05-05 05:44 | -5.95129 | 106.56535 | 2993 ft | 202 kts | 207° |
| 2026-05-05 05:44 | -5.96314 | 106.55856 | 2928 ft | 190 kts | 207° |
| 2026-05-05 05:45 | -5.97410 | 106.55214 | 2832 ft | 178 kts | 209° |
| 2026-05-05 05:45 | -5.98523 | 106.54540 | 2272 ft | 205 kts | 208° |
| 2026-05-05 05:45 | -5.99916 | 106.53682 | 2008 ft | 242 kts | 210° |
| 2026-05-05 05:45 | -6.01304 | 106.52854 | 1902 ft | 228 kts | 208° |
| 2026-05-05 05:46 | -6.02632 | 106.52077 | 1814 ft | 211 kts | 210° |
| 2026-05-05 05:46 | -6.03889 | 106.51341 | 1894 ft | 210 kts | 209° |
| 2026-05-05 05:46 | -6.05160 | 106.50591 | 1980 ft | 212 kts | 208° |
| 2026-05-05 05:46 | -6.06420 | 106.49836 | 2004 ft | 209 kts | 209° |
| 2026-05-05 05:47 | -6.07671 | 106.49086 | 1983 ft | 210 kts | 210° |
| 2026-05-05 05:47 | -6.08915 | 106.48336 | 2006 ft | 207 kts | 211° |
| 2026-05-05 05:47 | -6.10149 | 106.47591 | 2009 ft | 207 kts | 209° |
| 2026-05-05 05:47 | -6.11384 | 106.46847 | 1964 ft | 207 kts | 210° |
| 2026-05-05 05:48 | -6.12618 | 106.46105 | 1925 ft | 208 kts | 209° |
| 2026-05-05 05:48 | -6.13881 | 106.45392 | 1960 ft | 207 kts | 197° |
| 2026-05-05 05:48 | -6.15154 | 106.45257 | 1906 ft | 198 kts | 166° |
| 2026-05-05 05:48 | -6.16351 | 106.45844 | 1867 ft | 190 kts | 134° |
| 2026-05-05 05:49 | -6.17055 | 106.46913 | 1976 ft | 186 kts | 107° |
| 2026-05-05 05:49 | -6.17247 | 106.48185 | 2010 ft | 185 kts | 91° |
| 2026-05-05 05:49 | -6.17155 | 106.49477 | 2027 ft | 185 kts | 74° |
| 2026-05-05 05:49 | -6.16751 | 106.50697 | 2005 ft | 186 kts | 71° |
| 2026-05-05 05:50 | -6.16309 | 106.51920 | 1988 ft | 186 kts | 69° |
| 2026-05-05 05:50 | -6.15852 | 106.53137 | 1967 ft | 185 kts | 70° |
| 2026-05-05 05:50 | -6.15388 | 106.54350 | 1973 ft | 186 kts | 68° |
| 2026-05-05 05:50 | -6.14916 | 106.55561 | 1971 ft | 189 kts | 68° |
| 2026-05-05 05:51 | -6.14439 | 106.56757 | 1780 ft | 180 kts | 68° |
| 2026-05-05 05:51 | -6.14018 | 106.57930 | 1206 ft | 182 kts | 70° |
| 2026-05-05 05:51 | -6.13629 | 106.59146 | 762 ft | 173 kts | 71° |
| 2026-05-05 05:51 | -6.13307 | 106.60206 | 648 ft | 149 kts | 73° |
| 2026-05-05 05:52 | -6.13001 | 106.61136 | 552 ft | 142 kts | 65° |
| 2026-05-05 05:52 | -6.12642 | 106.62034 | 514 ft | 134 kts | 66° |
| 2026-05-05 05:52 | -6.12313 | 106.62946 | 324 ft | 139 kts | 66° |
| 2026-05-05 05:52 | -6.11883 | 106.63846 | 205 ft | 143 kts | 55° |
| 2026-05-05 05:53 | -6.11300 | 106.64684 | 69 ft | 141 kts | 64° |
| 2026-05-05 05:53 | -6.10990 | 106.65483 | 43 ft | 115 kts | 62° |
| 2026-05-05 05:53 | -6.10719 | 106.66132 | 40 ft | 75 kts | 71° |
| 2026-05-05 05:53 | -6.10638 | 106.66521 | 40 ft | 48 kts | 98° |
| 2026-05-05 05:54 | -6.10723 | 106.66675 | 40 ft | 7 kts | 160° |
| 2026-05-05 05:54 | -6.10771 | 106.66678 | 40 ft | 7 kts | 195° |
| 2026-05-05 05:54 | -6.10811 | 106.66635 | 40 ft | 12 kts | 246° |
| 2026-05-05 05:54 | -6.10846 | 106.66550 | 40 ft | 14 kts | 248° |
| 2026-05-05 05:55 | -6.10872 | 106.66484 | 40 ft | 16 kts | 248° |
| 2026-05-05 05:55 | -6.10916 | 106.66372 | 40 ft | 18 kts | 248° |
| 2026-05-05 05:55 | -6.10967 | 106.66245 | 39 ft | 21 kts | 248° |
| 2026-05-05 05:55 | -6.11022 | 106.66105 | 42 ft | 23 kts | 249° |
| 2026-05-05 05:56 | -6.11080 | 106.65961 | 41 ft | 5 kts | 227° |
| 2026-05-05 05:56 | -6.11095 | 106.65960 | 42 ft | 2 kts | 158° |
| 2026-05-05 05:56 | -6.11132 | 106.65991 | 42 ft | 13 kts | 139° |
| 2026-05-05 05:56 | -6.11213 | 106.66052 | 42 ft | 18 kts | 144° |
| 2026-05-05 05:57 | -6.11258 | 106.66180 | 42 ft | 24 kts | 97° |
| 2026-05-05 05:57 | -6.11351 | 106.66303 | 41 ft | 26 kts | 165° |
| 2026-05-05 05:57 | -6.11524 | 106.66366 | 40 ft | 28 kts | 158° |
| 2026-05-05 05:57 | -6.11644 | 106.66450 | 40 ft | 14 kts | 80° |
| 2026-05-05 05:58 | -6.11607 | 106.66551 | 39 ft | 17 kts | 67° |
| 2026-05-05 05:58 | -6.11559 | 106.66665 | 40 ft | 19 kts | 67° |
| 2026-05-05 05:58 | -6.11519 | 106.66763 | 40 ft | 4 kts | 69° |
| 2026-05-05 05:58 | -6.11517 | 106.66770 | 40 ft | 2 kts | 69° |
| 2026-05-05 05:59 | -6.11520 | 106.66791 | 40 ft | 3 kts | 134° |
| 2026-05-05 05:59 | -6.11543 | 106.66801 | 40 ft | 5 kts | 158° |
| 2026-05-05 05:59 | -6.11583 | 106.66818 | 40 ft | 1 kts | 158° |
| 2026-05-05 05:59 | -6.11596 | 106.66823 | 40 ft | 3 kts | 158° |
| 2026-05-05 06:00 | -6.11606 | 106.66827 | 40 ft | 1 kts | 158° |
| 2026-05-05 06:00 | -6.11608 | 106.66828 | 40 ft | 0 kts | 158° |